Time;durP1;ratioP1;P1;durP2;ratioP2;P2;SDS_P1;SDS_P2;PMS_P1;PMS_P2;Temp;Humidity;BMP_temperature;BMP_pressure;BME280_temperature;BME280_humidity;BME280_pressure;Samples;Min_cycle;Max_cycle;Signal;HPM_P1;HPM_P2
2021/12/12 00:01:28;;;;;;;119.00;45.50;;;;;;;2.46;100.00;101895.34;4995540;28;20054;-78
2021/12/12 00:04:13;;;;;;;116.20;45.50;;;;;;;2.47;100.00;101903.19;4972032;28;20276;-80
2021/12/12 00:06:57;;;;;;;120.72;44.50;;;;;;;2.49;100.00;101905.91;4952615;28;20053;-78
2021/12/12 00:09:43;;;;;;;116.47;45.20;;;;;;;2.50;100.00;101907.69;4957121;28;20042;-79
2021/12/12 00:12:20;;;;;;;113.63;44.53;;;;;;;2.51;100.00;101909.47;4991676;28;20038;-77
2021/12/12 00:14:48;;;;;;;101.45;43.70;;;;;;;2.53;100.00;101911.34;4999492;28;20228;-79
2021/12/12 00:17:18;;;;;;;123.78;47.60;;;;;;;2.55;100.00;101901.00;4975862;28;20034;-78
2021/12/12 00:19:47;;;;;;;110.80;44.13;;;;;;;2.56;100.00;101908.00;4939910;28;20381;-77
2021/12/12 00:22:19;;;;;;;114.50;46.97;;;;;;;2.56;100.00;101918.41;4958413;28;20036;-79
2021/12/12 00:24:48;;;;;;;112.55;48.85;;;;;;;2.59;100.00;101912.47;4972622;28;20054;-78
2021/12/12 00:27:19;;;;;;;113.65;44.63;;;;;;;2.59;100.00;101913.38;4986383;28;20046;-79
2021/12/12 00:29:50;;;;;;;119.20;46.63;;;;;;;2.60;100.00;101922.97;5006241;28;20073;-79
2021/12/12 00:32:23;;;;;;;105.93;44.33;;;;;;;2.60;100.00;101914.28;4991639;28;20046;-79
2021/12/12 00:34:58;;;;;;;117.55;46.35;;;;;;;2.61;100.00;101910.84;4953704;28;20312;-79
2021/12/12 00:37:28;;;;;;;110.65;44.63;;;;;;;2.62;100.00;101907.44;4985844;28;20054;-79
2021/12/12 00:40:15;;;;;;;97.40;43.35;;;;;;;2.62;100.00;101907.44;4967665;28;20054;-78
2021/12/12 00:42:46;;;;;;;108.53;46.83;;;;;;;2.63;100.00;101904.94;5006707;28;20050;-79
2021/12/12 00:45:18;;;;;;;110.13;44.92;;;;;;;2.63;100.00;101896.22;4995695;28;20046;-79
2021/12/12 00:47:46;;;;;;;;;;;;;;;2.65;100.00;101905.00;4985277;28;20061;-78
2021/12/12 00:50:28;;;;;;;127.80;47.45;;;;;;;2.62;100.00;101900.53;4974128;28;19921;-77
2021/12/12 00:52:58;;;;;;;112.90;47.60;;;;;;;2.62;100.00;101897.03;4968042;28;20100;-77
2021/12/12 00:55:28;;;;;;;115.25;48.75;;;;;;;2.63;100.00;101893.63;4993311;28;20402;-79
2021/12/12 00:57:56;;;;;;;107.68;47.55;;;;;;;2.64;100.00;101888.47;4986937;28;20030;-77
2021/12/12 01:00:30;;;;;;;109.15;48.65;;;;;;;2.64;100.00;101885.00;4963143;28;20054;-78
2021/12/12 01:02:59;;;;;;;104.55;46.17;;;;;;;2.64;100.00;101875.47;4961653;28;20041;-77
2021/12/12 01:05:28;;;;;;;109.00;46.92;;;;;;;2.64;100.00;101883.28;4977758;28;20057;-79
2021/12/12 01:07:57;;;;;;;102.70;46.65;;;;;;;2.65;100.00;101885.06;4943187;28;20046;-79
2021/12/12 01:10:27;;;;;;;107.65;48.45;;;;;;;2.66;100.00;101875.56;4977996;28;20503;-78
2021/12/12 01:12:58;;;;;;;104.32;49.55;;;;;;;2.67;100.00;101877.34;4976244;28;20057;-77
2021/12/12 01:15:32;;;;;;;104.88;49.05;;;;;;;2.68;100.00;101886.94;4994689;28;20495;-78
2021/12/12 01:18:06;;;;;;;97.47;46.00;;;;;;;2.68;100.00;101887.81;4972763;28;20275;-79
2021/12/12 01:20:49;;;;;;;108.30;48.97;;;;;;;2.69;100.00;101884.41;4976786;28;20061;-79
2021/12/12 01:23:26;;;;;;;102.65;47.03;;;;;;;2.69;100.00;101887.03;4994647;28;20049;-79
2021/12/12 01:25:56;;;;;;;103.63;47.25;;;;;;;2.70;100.00;101883.63;4962779;28;20798;-79
2021/12/12 01:28:30;;;;;;;103.88;48.55;;;;;;;2.70;100.00;101874.88;4990950;28;20046;-79
2021/12/12 01:31:04;;;;;;;110.90;49.90;;;;;;;2.72;100.00;101874.19;4975889;28;20256;-79
2021/12/12 01:33:35;;;;;;;96.00;46.22;;;;;;;2.71;100.00;101880.19;5012513;28;20061;-79
2021/12/12 01:36:12;;;;;;;97.20;45.80;;;;;;;2.72;100.00;101874.19;4987294;28;20157;-77
2021/12/12 01:38:58;;;;;;;96.97;47.63;;;;;;;2.76;100.00;101884.72;5002084;28;20049;-78
2021/12/12 01:41:57;;;;;;;99.13;45.60;;;;;;;2.75;100.00;101867.34;4973104;28;20045;-78
2021/12/12 01:44:40;;;;;;;107.80;47.72;;;;;;;2.75;100.00;101865.63;4980050;28;20052;-78
2021/12/12 01:47:13;;;;;;;92.57;45.92;;;;;;;2.75;100.00;101873.44;4971240;28;20042;-79
2021/12/12 01:49:48;;;;;;;102.30;46.60;;;;;;;2.76;100.00;101862.22;4993405;28;20037;-78
2021/12/12 01:52:20;;;;;;;103.53;45.55;;;;;;;2.77;100.00;101868.31;4980493;28;20068;-78
2021/12/12 01:54:57;;;;;;;94.65;45.70;;;;;;;2.78;100.00;101860.59;4975829;28;20168;-77
2021/12/12 01:57:34;;;;;;;97.45;46.50;;;;;;;2.78;100.00;101868.41;4974436;28;20368;-78
2021/12/12 02:00:32;;;;;;;89.82;44.75;;;;;;;2.80;100.00;101866.75;5008533;28;20054;-78
2021/12/12 02:03:03;;;;;;;94.50;43.20;;;;;;;2.80;100.00;101868.44;5008698;23;20069;-79
2021/12/12 02:05:34;;;;;;;95.65;44.92;;;;;;;2.80;100.00;101871.03;4991079;28;20049;-79
2021/12/12 02:08:09;;;;;;;91.90;43.50;;;;;;;2.82;100.00;101859.03;4994432;28;20069;-77
2021/12/12 02:10:44;;;;;;;98.82;45.53;;;;;;;2.82;100.00;101859.91;5001900;28;20521;-79
2021/12/12 02:13:19;;;;;;;99.03;44.15;;;;;;;2.83;100.00;101851.28;5012728;28;20390;-79
2021/12/12 02:15:54;;;;;;;82.85;40.83;;;;;;;2.84;100.00;101852.19;5022435;28;20041;-79
2021/12/12 02:18:28;;;;;;;91.00;42.30;;;;;;;2.85;100.00;101854.84;4994908;28;20050;-79
2021/12/12 02:37:20;;;;;;;90.45;42.65;;;;;;;2.90;100.00;101840.34;5009954;28;20516;-78
2021/12/12 02:39:49;;;;;;;85.47;41.28;;;;;;;2.92;100.00;101837.84;4988884;28;20042;-80
2021/12/12 02:42:21;;;;;;;78.07;39.83;;;;;;;2.92;100.00;101835.22;4972403;28;20113;-79
2021/12/12 02:44:54;;;;;;;78.50;40.90;;;;;;;2.94;100.00;101838.81;4978601;28;20069;-79
2021/12/12 02:47:33;;;;;;;89.57;40.42;;;;;;;2.94;100.00;101833.59;4984364;28;20051;-78
2021/12/12 02:50:14;;;;;;;94.75;41.28;;;;;;;2.96;100.00;101826.75;4977341;28;20176;-80
2021/12/12 02:52:49;;;;;;;88.85;41.00;;;;;;;2.96;100.00;101824.16;4995279;28;20395;-79
2021/12/12 02:55:33;;;;;;;80.75;38.92;;;;;;;2.97;100.00;101822.44;5004446;28;20054;-78
2021/12/12 02:58:04;;;;;;;76.80;37.47;;;;;;;2.98;100.00;101813.81;4988284;28;20042;-79
2021/12/12 03:00:44;;;;;;;73.97;39.15;;;;;;;2.99;100.00;101805.19;4999447;28;20126;-79
2021/12/12 03:03:16;;;;;;;71.13;35.17;;;;;;;3.00;100.00;101807.84;5018789;28;20061;-79
2021/12/12 03:05:46;;;;;;;76.07;36.90;;;;;;;3.00;100.00;101797.44;4999582;28;20522;-78
2021/12/12 03:08:16;;;;;;;82.35;37.00;;;;;;;3.01;100.00;101794.03;4987219;28;20529;-78
2021/12/12 03:10:48;;;;;;;76.05;36.42;;;;;;;3.01;100.00;101781.00;4991786;28;20053;-80
2021/12/12 03:13:17;;;;;;;78.80;36.38;;;;;;;3.02;100.00;101797.53;5005243;28;20056;-79
2021/12/12 03:15:47;;;;;;;64.30;35.40;;;;;;;3.02;100.00;101785.38;4981503;28;20046;-78
2021/12/12 03:18:20;;;;;;;76.47;37.05;;;;;;;3.02;100.00;101795.81;5005678;28;20511;-79
2021/12/12 03:20:54;;;;;;;79.22;36.22;;;;;;;3.03;100.00;101791.50;5008775;28;20135;-79
2021/12/12 03:23:28;;;;;;;73.95;36.42;;;;;;;3.03;100.00;101789.78;5006298;28;20053;-79
2021/12/12 03:26:00;;;;;;;77.68;35.65;;;;;;;3.05;100.00;101779.44;5018585;28;20076;-78
2021/12/12 03:28:32;;;;;;;73.97;34.67;;;;;;;3.06;100.00;101773.41;5001293;28;20046;-78
2021/12/12 03:31:05;;;;;;;79.35;37.78;;;;;;;3.06;100.00;101765.59;4996599;28;20057;-78
2021/12/12 03:33:34;;;;;;;75.72;35.13;;;;;;;3.08;100.00;101748.34;5020488;28;20046;-79
2021/12/12 03:36:06;;;;;;;85.35;36.72;;;;;;;3.09;100.00;101755.34;4971271;28;20045;-79
2021/12/12 03:38:37;;;;;;;72.18;33.78;;;;;;;3.09;100.00;101745.81;4987326;28;20045;-78
2021/12/12 03:41:09;;;;;;;72.70;36.05;;;;;;;3.11;100.00;101744.16;4996397;28;20412;-78
2021/12/12 03:43:38;;;;;;;72.20;33.45;;;;;;;3.12;100.00;101745.97;5021882;28;20065;-79
2021/12/12 03:46:10;;;;;;;62.83;31.90;;;;;;;3.15;100.00;101744.31;4974794;28;20033;-78
2021/12/12 03:48:43;;;;;;;62.75;32.28;;;;;;;3.17;100.00;101740.06;5003332;28;20049;-79
2021/12/12 03:51:15;;;;;;;64.35;32.85;;;;;;;3.18;100.00;101739.28;4960562;28;20503;-78
2021/12/12 03:53:44;;;;;;;62.65;31.73;;;;;;;3.19;100.00;101741.03;4981338;28;20521;-78
2021/12/12 03:56:15;;;;;;;62.17;30.08;;;;;;;3.20;100.00;101730.69;4992735;28;20050;-78
2021/12/12 03:58:44;;;;;;;61.90;31.90;;;;;;;3.21;100.00;101718.56;4985539;28;20045;-79
2021/12/12 04:01:33;;;;;;;55.10;30.52;;;;;;;3.23;100.00;101723.03;4963752;28;20038;-79
2021/12/12 04:04:11;;;;;;;56.63;28.08;;;;;;;3.23;100.00;101716.91;5020359;28;20255;-80
2021/12/12 04:06:40;;;;;;;58.08;28.38;;;;;;;3.25;100.00;101730.91;5002917;28;20046;-79
2021/12/12 04:09:11;;;;;;;64.28;28.92;;;;;;;3.26;100.00;101737.91;5008547;28;20042;-79
2021/12/12 04:11:44;;;;;;;57.22;28.38;;;;;;;3.28;100.00;101712.81;4979008;28;20050;-79
2021/12/12 04:14:13;;;;;;;64.75;30.35;;;;;;;3.28;100.00;101708.50;5000549;28;20368;-79
2021/12/12 04:16:45;;;;;;;56.15;28.70;;;;;;;3.29;100.00;101728.53;4963594;28;20526;-79
2021/12/12 04:19:14;;;;;;;54.10;29.13;;;;;;;3.30;100.00;101716.38;4987339;28;20046;-79
2021/12/12 04:21:43;;;;;;;65.88;29.30;;;;;;;3.31;100.00;101718.19;5000647;28;20045;-79
2021/12/12 04:24:20;;;;;;;61.53;28.80;;;;;;;3.31;100.00;101711.25;4989957;28;20398;-79
2021/12/12 04:26:49;;;;;;;63.08;28.60;;;;;;;3.32;100.00;101713.03;5008086;28;20259;-79
2021/12/12 04:29:22;;;;;;;57.47;28.25;;;;;;;3.34;100.00;101710.50;4989216;28;20376;-79
2021/12/12 04:31:54;;;;;;;56.85;27.48;;;;;;;3.36;100.00;101711.44;4976418;28;20129;-80
2021/12/12 04:34:26;;;;;;;55.05;28.95;;;;;;;3.36;100.00;101716.66;5003743;28;20069;-78
2021/12/12 04:36:56;;;;;;;52.65;26.35;;;;;;;3.39;100.00;101719.44;5001274;28;20254;-78
2021/12/12 04:39:28;;;;;;;60.20;27.10;;;;;;;3.40;100.00;101717.69;5003621;28;20048;-79
2021/12/12 04:42:04;;;;;;;51.83;27.45;;;;;;;3.42;100.00;101710.84;4982109;28;20726;-79
2021/12/12 04:44:36;;;;;;;50.50;26.17;;;;;;;3.45;100.00;101718.81;5001337;28;20511;-79
2021/12/12 04:50:09;;;;;;;47.90;25.35;;;;;;;3.49;100.00;101715.53;5001470;28;20049;-79
2021/12/12 04:52:48;;;;;;;42.00;23.70;;;;;;;3.49;100.00;101705.97;5002659;28;20045;-79
2021/12/12 04:55:28;;;;;;;46.30;23.50;;;;;;;3.53;100.00;101711.34;5004486;28;20399;-79
2021/12/12 04:58:09;;;;;;;42.47;22.15;;;;;;;3.54;100.00;101701.00;5009445;28;20046;-80
2021/12/12 05:00:50;;;;;;;50.60;26.17;;;;;;;3.56;100.00;101701.97;5001947;28;20049;-79
2021/12/12 05:03:31;;;;;;;45.65;24.98;;;;;;;3.58;100.00;101704.63;5006752;28;20525;-79
2021/12/12 05:06:02;;;;;;;42.63;23.15;;;;;;;3.59;100.00;101706.41;5001704;28;20561;-79
2021/12/12 05:08:38;;;;;;;43.03;24.45;;;;;;;3.62;100.00;101701.34;5003629;28;20058;-80
2021/12/12 05:11:18;;;;;;;41.00;22.23;;;;;;;3.63;100.00;101708.31;4986885;28;20041;-79
2021/12/12 05:13:55;;;;;;;41.28;23.00;;;;;;;3.64;100.00;101704.91;4985097;28;20318;-79
2021/12/12 05:16:35;;;;;;;42.15;22.60;;;;;;;3.63;100.00;101701.41;5003560;28;20525;-78
2021/12/12 05:19:12;;;;;;;35.73;18.40;;;;;;;3.65;100.00;101718.03;4990238;28;20046;-79
2021/12/12 05:21:46;;;;;;;38.17;22.30;;;;;;;3.65;100.00;101712.81;5001694;28;20324;-79
2021/12/12 05:24:18;;;;;;;45.13;22.45;;;;;;;3.67;100.00;101702.44;5015842;28;20038;-79
2021/12/12 05:26:53;;;;;;;34.35;20.30;;;;;;;3.68;100.00;101704.22;4978480;28;20644;-79
2021/12/12 05:29:32;;;;;;;42.75;22.15;;;;;;;3.70;100.00;101705.19;4984477;28;20053;-79
2021/12/12 05:32:03;;;;;;;37.53;21.13;;;;;;;3.70;100.00;101697.34;4978946;28;20034;-79
2021/12/12 05:34:36;;;;;;;33.92;20.35;;;;;;;3.72;100.00;101695.72;5023833;28;20042;-79
2021/12/12 05:37:06;;;;;;;34.15;20.80;;;;;;;3.74;100.00;101699.28;5022243;28;20164;-79
2021/12/12 05:39:34;;;;;;;31.15;19.77;;;;;;;3.74;100.00;101701.88;4998501;28;20054;-79
2021/12/12 05:42:04;;;;;;;32.78;20.25;;;;;;;3.75;100.00;101703.69;4989226;28;20346;-79
2021/12/12 05:44:33;;;;;;;29.63;18.08;;;;;;;3.77;100.00;101702.03;4997161;28;20050;-78
2021/12/12 05:47:09;;;;;;;25.23;17.90;;;;;;;3.78;100.00;101688.19;4977582;28;20038;-79
2021/12/12 05:49:41;;;;;;;29.38;19.00;;;;;;;3.80;100.00;101699.56;5000949;28;20114;-79
2021/12/12 05:52:18;;;;;;;26.00;17.70;;;;;;;3.82;100.00;101705.75;5008203;28;20054;-79
2021/12/12 05:54:48;;;;;;;23.25;16.80;;;;;;;3.82;100.00;101700.53;5003454;28;20057;-78
2021/12/12 05:57:23;;;;;;;24.63;16.85;;;;;;;3.84;100.00;101690.16;4997260;28;20042;-79
2021/12/12 05:59:54;;;;;;;25.92;18.20;;;;;;;3.85;100.00;101700.63;4994520;28;20276;-79
2021/12/12 06:02:24;;;;;;;29.45;16.98;;;;;;;3.87;100.00;101698.09;5006975;28;20049;-79
2021/12/12 06:05:00;;;;;;;25.85;17.05;;;;;;;3.88;100.00;101700.78;4968612;28;20683;-79
2021/12/12 06:07:33;;;;;;;28.58;17.00;;;;;;;3.89;100.00;101701.66;4965080;28;20037;-79
2021/12/12 06:10:06;;;;;;;33.60;19.35;;;;;;;3.89;100.00;101697.38;4989493;28;20034;-79
2021/12/12 06:12:36;;;;;;;30.35;17.40;;;;;;;3.91;100.00;101702.63;4989715;28;20050;-78
2021/12/12 06:15:10;;;;;;;31.40;17.88;;;;;;;3.92;100.00;101699.22;4981268;28;20065;-78
2021/12/12 06:17:40;;;;;;;27.55;17.50;;;;;;;3.93;100.00;101700.09;4970043;28;20054;-78
2021/12/12 06:20:11;;;;;;;26.23;18.37;;;;;;;3.94;100.00;101700.16;4978527;28;20053;-79
2021/12/12 06:22:39;;;;;;;25.70;17.27;;;;;;;3.96;100.00;101700.25;4986907;28;20046;-78
2021/12/12 06:25:12;;;;;;;25.98;17.77;;;;;;;3.97;100.00;101699.41;5005203;28;20065;-79
2021/12/12 06:27:43;;;;;;;23.58;16.02;;;;;;;3.98;100.00;101698.59;4994756;28;20034;-78
2021/12/12 06:30:18;;;;;;;28.52;16.48;;;;;;;3.99;100.00;101697.75;4974037;28;20054;-79
2021/12/12 06:32:50;;;;;;;24.05;17.02;;;;;;;4.01;100.00;101697.00;4967863;28;20248;-79
2021/12/12 06:35:19;;;;;;;27.60;17.65;;;;;;;4.01;100.00;101697.00;4987601;28;20062;-78
2021/12/12 06:37:51;;;;;;;28.58;17.27;;;;;;;4.03;100.00;101697.09;5003383;28;20065;-78
2021/12/12 06:40:21;;;;;;;33.47;19.92;;;;;;;4.05;100.00;101693.69;4987657;28;20515;-78
2021/12/12 06:42:51;;;;;;;28.63;17.98;;;;;;;4.05;100.00;101691.09;4984713;28;20319;-78
2021/12/12 06:45:20;;;;;;;29.67;18.67;;;;;;;4.07;100.00;101701.59;4974000;28;20038;-79
2021/12/12 06:47:51;;;;;;;;;;;;;;;4.09;100.00;101697.34;4993707;28;20061;-78
2021/12/12 06:50:23;;;;;;;27.92;17.45;;;;;;;4.09;100.00;101700.81;4964378;28;19921;-78
2021/12/12 06:52:53;;;;;;;18.38;12.70;;;;;;;4.12;100.00;101704.38;4969179;28;20042;-78
2021/12/12 06:55:22;;;;;;;25.65;15.52;;;;;;;4.13;100.00;101709.69;5006353;28;20042;-78
2021/12/12 06:57:51;;;;;;;26.77;16.60;;;;;;;4.16;100.00;101714.13;4976301;28;20994;-78
2021/12/12 07:00:28;;;;;;;24.65;16.50;;;;;;;4.17;100.00;101710.72;4974744;28;20049;-78
2021/12/12 07:02:57;;;;;;;25.80;15.23;;;;;;;4.18;100.00;101710.78;5010663;28;20267;-79
2021/12/12 07:05:28;;;;;;;20.25;15.00;;;;;;;4.20;100.00;101718.69;4944689;28;20534;-78
2021/12/12 07:07:58;;;;;;;24.30;15.65;;;;;;;4.22;100.00;101723.13;5003426;28;20151;-79
2021/12/12 07:10:28;;;;;;;22.27;14.90;;;;;;;4.23;100.00;101719.66;5007590;28;20068;-78
2021/12/12 07:12:59;;;;;;;23.83;14.60;;;;;;;4.24;100.00;101721.47;4987096;28;20049;-78
2021/12/12 07:15:32;;;;;;;21.45;15.00;;;;;;;4.25;100.00;101710.22;5005568;28;20053;-79
2021/12/12 07:18:09;;;;;;;27.42;15.77;;;;;;;4.27;100.00;101716.41;4984818;28;20554;-79
2021/12/12 07:20:37;;;;;;;22.08;14.38;;;;;;;4.28;100.00;101714.66;4989186;28;20399;-78
2021/12/12 07:23:09;;;;;;;27.27;16.17;;;;;;;4.29;100.00;101717.34;5013695;28;20041;-78
2021/12/12 07:25:40;;;;;;;22.73;15.07;;;;;;;4.30;100.00;101721.72;5019712;28;20503;-78
2021/12/12 07:28:08;;;;;;;;;;;;;;;4.32;100.00;101734.84;4971609;28;20046;-78
2021/12/12 07:30:37;;;;;;;25.50;15.05;;;;;;;4.34;100.00;101734.91;5022423;28;19928;-78
2021/12/12 07:33:06;;;;;;;25.33;16.13;;;;;;;4.35;100.00;101741.91;4998666;28;20045;-79
2021/12/12 07:35:38;;;;;;;24.90;15.30;;;;;;;4.36;100.00;101747.19;4990314;28;20037;-78
2021/12/12 07:38:09;;;;;;;28.15;16.73;;;;;;;4.38;100.00;101747.25;4970906;28;20069;-79
2021/12/12 07:40:38;;;;;;;27.20;16.45;;;;;;;4.38;100.00;101745.53;4984746;28;20045;-77
2021/12/12 07:43:07;;;;;;;23.30;15.73;;;;;;;4.40;100.00;101745.59;4976477;28;20050;-78
2021/12/12 07:45:37;;;;;;;25.58;16.23;;;;;;;4.42;100.00;101743.94;4987158;28;20049;-80
2021/12/12 07:48:09;;;;;;;33.30;18.25;;;;;;;4.43;100.00;101748.34;4993386;28;20077;-79
2021/12/12 07:50:39;;;;;;;26.90;17.33;;;;;;;4.44;100.00;101748.44;4969567;28;20056;-80
2021/12/12 07:53:11;;;;;;;26.85;16.85;;;;;;;4.47;100.00;101742.44;4946135;28;20045;-79
2021/12/12 07:55:40;;;;;;;31.27;18.15;;;;;;;4.48;100.00;101759.91;5002186;28;20050;-78
2021/12/12 07:58:16;;;;;;;28.50;16.73;;;;;;;4.51;100.00;101764.34;4996683;28;20046;-79
2021/12/12 08:00:49;;;;;;;34.60;18.35;;;;;;;4.51;100.00;101760.00;5002632;28;20057;-79
2021/12/12 08:03:25;;;;;;;30.25;17.13;;;;;;;4.55;100.00;101766.25;5005370;28;20061;-78
2021/12/12 08:09:50;;;;;;;33.47;17.80;;;;;;;4.59;100.00;101760.31;5007849;28;20034;-78
2021/12/12 08:12:24;;;;;;;32.00;18.77;;;;;;;4.59;100.00;101758.59;4989028;28;20395;-78
2021/12/12 08:14:53;;;;;;;35.55;19.00;;;;;;;4.62;100.00;101760.47;5017770;28;20557;-80
2021/12/12 08:17:26;;;;;;;35.33;18.40;;;;;;;4.63;100.00;101763.16;4990066;28;20053;-79
2021/12/12 08:19:57;;;;;;;32.80;18.57;;;;;;;4.64;100.00;101764.91;4984202;28;20051;-79
2021/12/12 08:22:29;;;;;;;33.55;19.52;;;;;;;4.66;100.00;101758.03;5013900;28;20778;-80
2021/12/12 08:24:59;;;;;;;36.13;18.88;;;;;;;4.68;100.00;101756.38;4984722;28;20368;-79
2021/12/12 08:27:28;;;;;;;34.15;19.40;;;;;;;4.71;100.00;101752.09;5003709;28;20053;-79
2021/12/12 08:29:58;;;;;;;38.63;18.70;;;;;;;4.73;100.00;101750.47;4995123;28;20274;-78
2021/12/12 08:32:27;;;;;;;37.10;18.88;;;;;;;4.74;100.00;101755.75;5000650;28;20046;-78
2021/12/12 08:35:11;;;;;;;35.80;19.00;;;;;;;4.78;100.00;101761.97;4961525;28;20043;-79
2021/12/12 08:37:41;;;;;;;39.58;19.67;;;;;;;4.80;100.00;101760.31;4992132;28;20045;-78
2021/12/12 08:40:14;;;;;;;43.92;20.20;;;;;;;4.82;100.00;101761.28;4999583;28;20403;-79
2021/12/12 08:42:43;;;;;;;38.83;19.55;;;;;;;4.84;100.00;101764.88;5005023;28;20060;-80
2021/12/12 08:45:15;;;;;;;33.97;18.73;;;;;;;4.87;100.00;101764.97;4986150;28;20047;-79
2021/12/12 08:47:46;;;;;;;45.88;20.23;;;;;;;4.90;100.00;101767.72;4985808;28;20053;-78
2021/12/12 08:50:21;;;;;;;46.00;21.42;;;;;;;4.92;100.00;101770.41;4949764;28;20060;-79
2021/12/12 08:52:50;;;;;;;43.33;20.42;;;;;;;4.95;100.00;101779.22;4997323;28;20054;-78
2021/12/12 08:55:32;;;;;;;38.13;18.92;;;;;;;4.97;100.00;101779.31;4980733;28;20507;-79
2021/12/12 08:58:17;;;;;;;41.35;21.88;;;;;;;4.99;100.00;101778.56;4982955;28;20156;-79
2021/12/12 09:01:21;;;;;;;40.50;20.00;;;;;;;5.04;100.00;101773.50;4994093;28;20038;-79
2021/12/12 09:03:53;;;;;;;52.38;23.23;;;;;;;5.05;100.00;101783.16;4913296;29;20433;-79
2021/12/12 09:06:26;;;;;;;40.15;20.25;;;;;;;5.08;100.00;101778.94;4984154;28;20046;-80
2021/12/12 09:08:54;;;;;;;45.38;21.23;;;;;;;5.12;100.00;101797.31;4992466;28;20558;-78
2021/12/12 09:11:35;;;;;;;43.90;21.83;;;;;;;5.13;100.00;101793.91;4976640;28;20048;-79
2021/12/12 09:19:42;;;;;;;38.13;20.23;;;;;;;5.21;100.00;101802.94;4869683;29;20494;-79
2021/12/12 09:23:32;;;;;;;49.08;21.98;;;;;;;5.23;100.00;101817.81;4880875;29;20055;-80
2021/12/12 09:26:54;;;;;;;56.22;22.30;;;;;;;5.26;100.00;101820.56;4884596;28;20245;-81
2021/12/12 09:29:33;;;;;;;63.08;24.85;;;;;;;5.27;100.00;101821.47;4910812;29;20429;-79
2021/12/12 09:32:42;;;;;;;60.83;24.65;;;;;;;5.30;100.00;101820.72;4914372;29;20063;-80
2021/12/12 09:36:40;;;;;;;63.25;23.50;;;;;;;5.34;100.00;101820.00;4931328;29;20051;-79
2021/12/12 09:41:09;;;;;;;;;;;;;;;;;;;;;
2021/12/12 09:54:51;;;;;;;72.60;26.33;;;;;;;5.49;100.00;101823.22;4816923;29;20435;-80
2021/12/12 10:08:48;;;;;;;83.17;27.57;;;;;;;5.61;100.00;101828.03;4927889;28;20055;-80
2021/12/12 10:22:25;;;;;;;77.05;25.35;;;;;;;5.75;100.00;101819.00;4767147;30;20410;-80
2021/12/12 10:45:08;;;;;;;142.25;33.38;;;;;;;5.96;100.00;101818.09;4719159;30;20056;-83
2021/12/12 10:48:00;;;;;;;151.87;36.60;;;;;;;5.99;100.00;101820.78;4726011;30;20526;-79
2021/12/12 10:51:01;;;;;;;158.65;36.63;;;;;;;6.02;100.00;101810.47;4762398;29;20765;-81
2021/12/12 10:54:15;;;;;;;160.80;37.65;;;;;;;6.04;100.00;101820.13;4865276;29;20063;-79
2021/12/12 10:57:15;;;;;;;140.23;36.72;;;;;;;6.08;100.00;101808.06;4897688;29;20051;-79
2021/12/12 11:00:16;;;;;;;185.70;38.50;;;;;;;6.13;100.00;101811.75;4961759;28;20065;-77
2021/12/12 11:02:49;;;;;;;176.68;41.10;;;;;;;6.15;100.00;101811.81;4962765;28;20061;-78
2021/12/12 11:05:30;;;;;;;172.45;40.42;;;;;;;6.18;100.00;101814.50;4999565;28;20072;-79
2021/12/12 11:08:22;;;;;;;158.20;40.05;;;;;;;6.21;100.00;101817.25;4990852;28;20072;-77
2021/12/12 11:11:12;;;;;;;142.88;37.97;;;;;;;6.27;100.00;101816.59;4996666;28;20042;-78
2021/12/12 11:13:49;;;;;;;184.95;44.40;;;;;;;6.29;100.00;101810.56;5005495;28;20053;-77
2021/12/12 11:16:42;;;;;;;171.20;43.22;;;;;;;6.32;100.00;101818.53;4965079;28;20073;-77
2021/12/12 11:19:17;;;;;;;178.63;41.90;;;;;;;6.35;100.00;101820.38;5004005;28;20049;-77
2021/12/12 11:22:06;;;;;;;199.15;45.45;;;;;;;6.38;100.00;101815.25;5000069;28;20041;-77
2021/12/12 11:24:42;;;;;;;177.63;40.72;;;;;;;6.41;100.00;101825.84;5013937;28;20526;-78
2021/12/12 11:27:29;;;;;;;187.98;42.70;;;;;;;6.44;100.00;101824.19;4963878;28;20041;-77
2021/12/12 11:30:11;;;;;;;177.63;42.13;;;;;;;6.50;100.00;101826.16;4989848;28;20054;-77
2021/12/12 11:32:40;;;;;;;187.32;44.15;;;;;;;6.55;100.00;101827.22;4991237;28;20050;-78
2021/12/12 11:35:11;;;;;;;224.43;49.00;;;;;;;6.61;100.00;101823.91;4990507;28;20061;-78
2021/12/12 11:38:04;;;;;;;152.82;40.42;;;;;;;6.67;100.00;101834.59;4978955;28;20054;-77
2021/12/12 11:40:46;;;;;;;188.02;43.22;;;;;;;6.71;100.00;101825.13;4967596;28;20137;-78
2021/12/12 11:43:25;;;;;;;194.32;43.65;;;;;;;6.76;100.00;101834.91;4946811;28;20311;-77
2021/12/12 11:46:01;;;;;;;202.18;44.45;;;;;;;6.80;100.00;101834.19;4979933;28;20050;-78
2021/12/12 11:48:33;;;;;;;190.88;42.63;;;;;;;6.83;100.00;101826.44;4992830;28;20068;-78
2021/12/12 11:51:11;;;;;;;219.85;48.20;;;;;;;6.87;100.00;101832.69;4973757;28;20080;-78
2021/12/12 11:54:05;;;;;;;153.00;39.67;;;;;;;6.90;100.00;101829.25;5003867;28;20056;-78
2021/12/12 11:56:45;;;;;;;169.73;41.53;;;;;;;6.93;100.00;101839.84;4959838;28;20061;-79
2021/12/12 11:59:32;;;;;;;170.52;43.65;;;;;;;6.95;100.00;101844.28;4969008;28;20050;-78
2021/12/12 12:02:17;;;;;;;175.80;42.10;;;;;;;6.98;100.00;101841.78;4952393;28;20038;-78
2021/12/12 12:05:12;;;;;;;173.77;39.20;;;;;;;7.00;100.00;101845.34;5000026;28;20060;-79
2021/12/12 12:07:58;;;;;;;144.35;37.83;;;;;;;7.04;100.00;101846.34;4997440;28;20711;-79
2021/12/12 12:10:43;;;;;;;163.40;39.60;;;;;;;7.06;100.00;101855.16;4988013;28;20042;-78
2021/12/12 12:13:32;;;;;;;176.55;41.55;;;;;;;7.10;100.00;101850.91;4994719;28;20054;-78
2021/12/12 12:16:27;;;;;;;162.65;39.08;;;;;;;7.16;100.00;101853.72;4998339;28;20069;-78
2021/12/12 12:19:25;;;;;;;113.10;33.42;;;;;;;7.19;100.00;101862.59;5003421;28;20061;-78
2021/12/12 12:22:10;;;;;;;136.82;35.78;;;;;;;7.22;100.00;101859.16;4976149;28;20054;-78
2021/12/12 12:24:59;;;;;;;133.05;34.60;;;;;;;7.28;100.00;101867.25;5005376;28;20042;-79
2021/12/12 12:27:38;;;;;;;141.13;36.92;;;;;;;7.32;100.00;101858.66;4995411;28;20049;-78
2021/12/12 12:30:45;;;;;;;107.47;31.42;;;;;;;7.38;100.00;101858.84;4999495;28;20030;-78
2021/12/12 12:33:13;;;;;;;139.07;36.05;;;;;;;7.42;100.00;101865.94;4992480;28;20396;-78
2021/12/12 12:36:19;;;;;;;125.72;33.50;;;;;;;7.47;100.00;101865.25;4985325;28;20065;-77
2021/12/12 12:39:26;;;;;;;114.88;34.55;;;;;;;7.52;100.00;101871.50;5015135;28;20053;-79
2021/12/12 12:43:10;;;;;;;97.95;30.20;;;;;;;7.54;100.00;101872.44;5002306;28;20418;-77
2021/12/12 12:46:24;;;;;;;135.27;35.83;;;;;;;7.57;100.00;101876.03;4958028;28;20054;-78
2021/12/12 12:49:12;;;;;;;83.72;28.45;;;;;;;7.58;100.00;101876.94;4932073;28;20285;-77
2021/12/12 12:52:24;;;;;;;117.07;33.75;;;;;;;7.61;100.00;101872.69;4983826;28;20053;-78
2021/12/12 12:55:31;;;;;;;111.70;32.22;;;;;;;7.66;100.00;101887.69;4957243;28;20042;-79
2021/12/12 12:58:37;;;;;;;117.22;33.60;;;;;;;7.69;100.00;101883.41;4981200;28;20050;-78
2021/12/12 13:01:20;;;;;;;109.68;33.30;;;;;;;7.71;100.00;101889.63;4980432;28;20068;-77
2021/12/12 13:04:01;;;;;;;119.32;34.55;;;;;;;7.73;100.00;101892.28;4980887;28;20062;-78
2021/12/12 13:06:39;;;;;;;;;;;;;;;7.75;100.00;101894.13;4976483;28;20042;-77
2021/12/12 13:09:15;;;;;;;91.93;29.88;;;;;;;7.78;100.00;101895.94;5019652;28;19932;-78
2021/12/12 13:12:09;;;;;;;112.28;30.52;;;;;;;7.80;100.00;101899.50;4989483;28;20244;-78
2021/12/12 13:15:05;;;;;;;106.65;31.70;;;;;;;7.84;100.00;101897.88;4990156;28;20175;-79
2021/12/12 13:18:09;;;;;;;119.18;32.65;;;;;;;7.83;100.00;101903.97;5015311;28;20069;-78
2021/12/12 13:20:37;;;;;;;95.40;30.35;;;;;;;7.84;100.00;101905.75;4980113;28;20413;-78